Time,TemperatureF,DewpointF,PressureIn,WindDirection,WindDirectionDegrees,WindSpeedMPH,WindSpeedGustMPH,Humidity,HourlyPrecipIn,Conditions,Clouds,dailyrainin,SoftwareType,DateUTC
2013-02-15 00:01:00,35.0,30.0,-100.00,West,278,3.0,3.0,81,-99.99,,,-99.99,,2013-02-15 08:01:00,
2013-02-15 00:11:00,35.0,30.0,-100.00,West,278,3.0,3.0,81,-99.99,,,-99.99,,2013-02-15 08:11:00,
2013-02-15 01:01:00,32.0,30.0,-100.00,WNW,295,5.0,8.0,92,-99.99,,,-99.99,,2013-02-15 09:01:00,
2013-02-15 01:12:00,32.0,30.0,-100.00,WNW,295,5.0,8.0,92,-99.99,,,-99.99,,2013-02-15 09:12:00,
2013-02-15 02:01:00,34.0,30.0,-100.00,NW,320,7.0,9.0,85,-99.99,,,-99.99,,2013-02-15 10:01:00,
2013-02-15 02:11:00,34.0,30.0,-100.00,NW,320,7.0,9.0,85,-99.99,,,-99.99,,2013-02-15 10:11:00,
2013-02-15 03:01:00,31.0,29.0,-100.00,NW,323,5.0,6.0,92,-99.99,,,-99.99,,2013-02-15 11:01:00,
2013-02-15 03:11:00,31.0,29.0,-100.00,NW,323,5.0,6.0,92,-99.99,,,-99.99,,2013-02-15 11:11:00,
2013-02-15 04:01:00,29.0,28.0,-100.00,NW,324,3.0,3.0,95,-99.99,,,-99.99,,2013-02-15 12:01:00,
2013-02-15 04:11:00,29.0,28.0,-100.00,NW,324,3.0,3.0,95,-99.99,,,-99.99,,2013-02-15 12:11:00,
2013-02-15 05:02:00,27.0,27.0,-100.00,North,356,3.0,3.0,100,-99.99,,,-99.99,,2013-02-15 13:02:00,
2013-02-15 05:11:00,27.0,27.0,-100.00,North,356,3.0,3.0,100,-99.99,,,-99.99,,2013-02-15 13:11:00,
2013-02-15 06:01:00,27.0,27.0,-100.00,SSW,204,5.0,7.0,100,-99.99,,,-99.99,,2013-02-15 14:01:00,
2013-02-15 06:11:00,27.0,27.0,-100.00,SSW,204,5.0,7.0,100,-99.99,,,-99.99,,2013-02-15 14:11:00,
2013-02-15 07:01:00,28.0,27.0,-100.00,WSW,253,5.0,6.0,95,-99.99,,,-99.99,,2013-02-15 15:01:00,
2013-02-15 07:11:00,28.0,27.0,-100.00,WSW,253,5.0,6.0,95,-99.99,,,-99.99,,2013-02-15 15:11:00,
2013-02-15 08:01:00,28.0,28.0,-100.00,NW,320,5.0,6.0,100,-99.99,,,-99.99,,2013-02-15 16:01:00,
2013-02-15 08:11:00,28.0,28.0,-100.00,NW,320,5.0,6.0,100,-99.99,,,-99.99,,2013-02-15 16:11:00,
2013-02-15 09:01:00,33.0,31.0,-100.00,NNW,347,2.0,3.0,92,-99.99,,,-99.99,,2013-02-15 17:01:00,
2013-02-15 09:11:00,33.0,31.0,-100.00,NNW,347,2.0,3.0,92,-99.99,,,-99.99,,2013-02-15 17:11:00,
2013-02-15 10:01:00,39.0,32.0,-100.00,WNW,300,3.0,5.0,75,-99.99,,,-99.99,,2013-02-15 18:01:00,
2013-02-15 10:11:00,39.0,32.0,-100.00,WNW,300,3.0,5.0,75,-99.99,,,-99.99,,2013-02-15 18:11:00,
2013-02-15 11:01:00,44.0,32.0,-100.00,NW,305,7.0,12.0,62,-99.99,,,-99.99,,2013-02-15 19:01:00,
2013-02-15 11:11:00,44.0,32.0,-100.00,NW,305,7.0,12.0,62,-99.99,,,-99.99,,2013-02-15 19:11:00,
2013-02-15 12:01:00,48.0,32.0,-100.00,NNW,330,6.0,8.0,53,-99.99,,,-99.99,,2013-02-15 20:01:00,
2013-02-15 12:11:00,48.0,32.0,-100.00,NNW,330,6.0,8.0,53,-99.99,,,-99.99,,2013-02-15 20:11:00,
2013-02-15 13:01:00,50.0,32.0,-100.00,NW,321,5.0,12.0,49,-99.99,,,-99.99,,2013-02-15 21:01:00,
2013-02-15 13:11:00,50.0,32.0,-100.00,NW,321,5.0,12.0,49,-99.99,,,-99.99,,2013-02-15 21:11:00,
2013-02-15 14:02:00,52.0,32.0,-100.00,NE,39,3.0,8.0,46,-99.99,,,-99.99,,2013-02-15 22:02:00,
2013-02-15 14:11:00,52.0,32.0,-100.00,NE,39,3.0,8.0,46,-99.99,,,-99.99,,2013-02-15 22:11:00,
2013-02-15 15:02:00,54.0,32.0,-100.00,ENE,66,3.0,8.0,42,-99.99,,,-99.99,,2013-02-15 23:02:00,
2013-02-15 15:11:00,54.0,32.0,-100.00,ENE,66,3.0,8.0,42,-99.99,,,-99.99,,2013-02-15 23:11:00,
2013-02-15 16:02:00,55.0,32.0,-100.00,NE,51,3.0,7.0,41,-99.99,,,-99.99,,2013-02-16 00:02:00,
2013-02-15 16:11:00,55.0,32.0,-100.00,NE,51,3.0,7.0,41,-99.99,,,-99.99,,2013-02-16 00:11:00,
2013-02-15 17:02:00,54.0,32.0,-100.00,ENE,77,3.0,6.0,42,-99.99,,,-99.99,,2013-02-16 01:02:00,
2013-02-15 17:11:00,54.0,32.0,-100.00,ENE,77,3.0,6.0,42,-99.99,,,-99.99,,2013-02-16 01:11:00,
2013-02-15 18:01:00,52.0,32.0,-100.00,NNE,22,1.0,2.0,46,-99.99,,,-99.99,,2013-02-16 02:01:00,
2013-02-15 18:11:00,52.0,32.0,-100.00,NNE,22,1.0,2.0,46,-99.99,,,-99.99,,2013-02-16 02:11:00,
2013-02-15 19:01:00,39.0,30.0,-100.00,WSW,250,2.0,3.0,69,-99.99,,,-99.99,,2013-02-16 03:01:00,
2013-02-15 19:11:00,39.0,30.0,-100.00,WSW,250,2.0,3.0,69,-99.99,,,-99.99,,2013-02-16 03:11:00,
2013-02-15 20:01:00,37.0,30.0,-100.00,WSW,242,2.0,3.0,75,-99.99,,,-99.99,,2013-02-16 04:01:00,
2013-02-15 20:11:00,37.0,30.0,-100.00,WSW,242,2.0,3.0,75,-99.99,,,-99.99,,2013-02-16 04:11:00,
2013-02-15 21:01:00,39.0,32.0,-100.00,WSW,250,8.0,9.0,75,-99.99,,,-99.99,,2013-02-16 05:01:00,
2013-02-15 21:11:00,39.0,32.0,-100.00,WSW,250,8.0,9.0,75,-99.99,,,-99.99,,2013-02-16 05:11:00,
2013-02-15 22:01:00,38.0,32.0,-100.00,WNW,289,7.0,9.0,78,-99.99,,,-99.99,,2013-02-16 06:01:00,
2013-02-15 22:11:00,38.0,32.0,-100.00,WNW,289,7.0,9.0,78,-99.99,,,-99.99,,2013-02-16 06:11:00,
2013-02-15 23:02:00,39.0,32.0,-100.00,WNW,296,8.0,12.0,75,-99.99,,,-99.99,,2013-02-16 07:02:00,
2013-02-15 23:11:00,39.0,32.0,-100.00,WNW,296,8.0,12.0,75,-99.99,,,-99.99,,2013-02-16 07:11:00,